createdAt,value
2022-08-28T00:01:59.747Z,101174.38
2022-08-28T00:04:26.917Z,101175.28
2022-08-28T00:06:53.825Z,101173.56
2022-08-28T00:09:20.695Z,101174.50
2022-08-28T00:11:48.355Z,101179.88
2022-08-28T00:14:15.421Z,101180.84
2022-08-28T00:16:42.446Z,101179.97
2022-08-28T00:19:10.878Z,101175.44
2022-08-28T00:21:37.861Z,101193.44
2022-08-28T00:24:05.349Z,101180.84
2022-08-28T00:26:50.616Z,101176.41
2022-08-28T00:29:17.477Z,101185.38
2022-08-28T00:31:44.379Z,101180.94
2022-08-28T00:34:11.365Z,101187.22
2022-08-28T00:36:38.732Z,101180.03
2022-08-28T00:39:06.772Z,101185.41
2022-08-28T00:41:36.457Z,101187.25
2022-08-28T00:44:18.286Z,101176.56
2022-08-28T00:46:48.911Z,101180.28
2022-08-28T00:49:19.190Z,101183.91
2022-08-28T00:52:05.521Z,101176.63
2022-08-28T00:54:36.237Z,101174.91
2022-08-28T00:57:06.741Z,101178.41
2022-08-28T00:59:34.114Z,101178.41
2022-08-28T01:02:01.556Z,101179.25
2022-08-28T01:04:32.250Z,101181.00
2022-08-28T01:07:06.196Z,101171.19
2022-08-28T01:09:34.315Z,101161.38
2022-08-28T01:12:09.566Z,101165.94
2022-08-28T01:14:40.869Z,101176.75
2022-08-28T01:17:09.997Z,101176.88
2022-08-28T01:19:41.902Z,101185.00
2022-08-28T01:22:37.345Z,101184.19
2022-08-28T01:25:11.367Z,101187.81
2022-08-28T01:27:41.736Z,101184.31
2022-08-28T01:30:12.967Z,101184.31
2022-08-28T01:32:45.474Z,101182.47
2022-08-28T01:35:19.945Z,101178.94
2022-08-28T01:37:47.289Z,101186.25
2022-08-28T01:40:22.979Z,101177.16
2022-08-28T01:42:50.270Z,101179.84
2022-08-28T01:45:20.570Z,101179.84
2022-08-28T01:47:48.260Z,101187.19
2022-08-28T01:50:21.358Z,101188.09
2022-08-28T01:52:48.240Z,101189.09
2022-08-28T01:55:15.127Z,101191.00
2022-08-28T01:57:50.969Z,101192.84
2022-08-28T02:00:18.533Z,101192.88
2022-08-28T02:02:45.437Z,101193.88
2022-08-28T02:05:12.394Z,101196.59
2022-08-28T02:07:39.591Z,101201.22
2022-08-28T02:10:09.141Z,101196.75
2022-08-28T02:12:36.442Z,101196.84
2022-08-28T02:15:08.319Z,101198.63
2022-08-28T02:17:35.170Z,101202.25
2022-08-28T02:20:02.298Z,101201.38
2022-08-28T02:22:29.146Z,101203.25
2022-08-28T02:24:56.002Z,101199.69
2022-08-28T02:27:22.821Z,101208.66
2022-08-28T02:29:49.820Z,101208.75
2022-08-28T02:32:18.186Z,101208.75
2022-08-28T02:34:45.269Z,101211.47
2022-08-28T02:37:13.626Z,101204.34
2022-08-28T02:39:40.869Z,101208.03
2022-08-28T02:42:07.754Z,101203.63
2022-08-28T02:44:35.435Z,101203.69
2022-08-28T02:47:03.222Z,101208.22
2022-08-28T02:49:35.523Z,101195.69
2022-08-28T02:52:04.398Z,101205.53
2022-08-28T02:54:31.290Z,101197.53
2022-08-28T02:56:58.627Z,101193.03
2022-08-28T02:59:25.648Z,101203.78
2022-08-28T03:01:52.547Z,101194.78
2022-08-28T03:04:19.505Z,101206.38
2022-08-28T03:06:46.372Z,101202.75
2022-08-28T03:09:13.198Z,101204.53
2022-08-28T03:11:41.098Z,101205.44
2022-08-28T03:14:08.165Z,101207.22
2022-08-28T03:16:35.114Z,101205.44
2022-08-28T03:19:01.982Z,101207.22
2022-08-28T03:21:28.829Z,101203.59
2022-08-28T03:23:55.703Z,101199.09
2022-08-28T03:26:23.968Z,101197.28
2022-08-28T03:28:53.504Z,101191.97
2022-08-28T03:31:25.060Z,101192.84
2022-08-28T03:33:53.402Z,101198.31
2022-08-28T03:36:25.362Z,101198.41
2022-08-28T03:38:54.254Z,101194.97
2022-08-28T03:41:25.296Z,101204.84
2022-08-28T03:43:52.554Z,101202.19
2022-08-28T03:46:23.789Z,101211.97
2022-08-28T03:48:52.351Z,101212.88
2022-08-28T03:51:29.301Z,101212.91
2022-08-28T03:54:01.034Z,101206.72
2022-08-28T03:56:29.925Z,101211.19
2022-08-28T03:59:00.133Z,101206.78
2022-08-28T04:01:28.012Z,101201.41
2022-08-28T04:03:54.904Z,101198.72
2022-08-28T04:06:22.918Z,101211.25
2022-08-28T04:08:50.952Z,101213.03
2022-08-28T04:11:18.220Z,101206.88
2022-08-28T04:13:45.258Z,101214.09
2022-08-28T04:16:16.580Z,101213.25
2022-08-28T04:18:44.030Z,101215.09
2022-08-28T04:21:15.206Z,101218.66
2022-08-28T04:23:44.946Z,101218.66
2022-08-28T04:26:16.964Z,101218.66
2022-08-28T04:28:44.245Z,101224.03
2022-08-28T04:31:11.073Z,101217.78
2022-08-28T04:33:39.306Z,101227.63
2022-08-28T04:36:11.645Z,101224.03
2022-08-28T04:38:43.686Z,101232.09
2022-08-28T04:41:14.291Z,101220.47
2022-08-28T04:43:41.566Z,101230.41
2022-08-28T04:46:13.066Z,101232.16
2022-08-28T04:48:41.390Z,101234.78
2022-08-28T04:51:10.961Z,101237.44
2022-08-28T04:53:38.824Z,101236.56
2022-08-28T04:56:11.852Z,101248.16
2022-08-28T04:58:41.204Z,101247.31
2022-08-28T05:01:16.010Z,101246.53
2022-08-28T05:03:43.002Z,101245.66
2022-08-28T05:06:12.785Z,101249.34
2022-08-28T05:08:39.766Z,101247.56
2022-08-28T05:11:32.679Z,101243.97
2022-08-28T05:14:05.650Z,101239.50
2022-08-28T05:16:39.431Z,101243.97
2022-08-28T05:19:06.288Z,101234.13
2022-08-28T05:21:33.116Z,101241.22
2022-08-28T05:24:00.012Z,101243.88
2022-08-28T05:26:29.635Z,101242.03
2022-08-28T05:28:59.293Z,101240.16
2022-08-28T05:31:28.682Z,101244.59
2022-08-28T05:33:55.926Z,101248.97
2022-08-28T05:36:25.313Z,101239.91
2022-08-28T05:38:57.442Z,101239.09
2022-08-28T05:41:32.376Z,101242.59
2022-08-28T05:44:01.934Z,101246.94
2022-08-28T05:46:29.312Z,101251.41
2022-08-28T05:48:57.602Z,101250.47
2022-08-28T05:51:28.604Z,101264.72
2022-08-28T05:53:57.430Z,101251.31
2022-08-28T05:56:31.021Z,101255.75
2022-08-28T05:59:01.025Z,101254.88
2022-08-28T06:01:31.264Z,101252.06
2022-08-28T06:04:12.298Z,101250.22
2022-08-28T06:06:41.224Z,101252.91
2022-08-28T06:09:16.590Z,101268.03
2022-08-28T06:11:46.061Z,101259.88
2022-08-28T06:14:17.465Z,101265.09
2022-08-28T06:16:49.056Z,101274.81
2022-08-28T06:19:17.417Z,101272.94
2022-08-28T06:21:44.440Z,101269.44
2022-08-28T06:24:12.136Z,101270.31
2022-08-28T06:26:39.276Z,101275.69
2022-08-28T06:29:11.788Z,101287.25
2022-08-28T06:31:39.177Z,101286.31
2022-08-28T06:34:07.182Z,101293.31
2022-08-28T06:36:37.851Z,101287.81
2022-08-28T06:39:06.657Z,101294.00
2022-08-28T06:41:39.790Z,101298.50
2022-08-28T06:44:07.738Z,101297.53
2022-08-28T06:46:36.649Z,101299.22
2022-08-28T06:49:08.045Z,101299.97
2022-08-28T06:51:35.722Z,101301.63
2022-08-28T06:54:02.971Z,101301.53
2022-08-28T06:56:29.922Z,101304.94
2022-08-28T06:58:58.511Z,101308.38
2022-08-28T07:01:36.891Z,101311.81
2022-08-28T07:04:08.940Z,101306.28
2022-08-28T07:06:40.050Z,101316.06
2022-08-28T07:09:11.412Z,101319.53
2022-08-28T07:11:39.773Z,101315.03
2022-08-28T07:14:07.696Z,101324.88
2022-08-28T07:16:41.259Z,101317.56
2022-08-28T07:19:11.984Z,101318.31
2022-08-28T07:21:43.144Z,101319.81
2022-08-28T07:24:14.588Z,101325.88
2022-08-28T07:26:43.464Z,101321.94
2022-08-28T07:29:11.755Z,101318.91
2022-08-28T07:31:42.849Z,101319.44
2022-08-28T07:34:12.171Z,101328.19
2022-08-28T07:36:39.824Z,101327.91
2022-08-28T07:39:08.348Z,101317.88
2022-08-28T07:41:39.162Z,101316.84
2022-08-28T07:44:26.062Z,101321.03
2022-08-28T07:46:59.131Z,101317.78
2022-08-28T07:49:26.561Z,101324.25
2022-08-28T07:51:54.576Z,101318.47
2022-08-28T07:54:23.097Z,101310.22
2022-08-28T07:56:50.898Z,101316.41
2022-08-28T07:59:19.254Z,101313.53
2022-08-28T08:01:48.877Z,101316.81
2022-08-28T08:04:17.344Z,101323.56
2022-08-28T08:06:45.632Z,101323.97
2022-08-28T08:09:16.673Z,101321.59
2022-08-28T08:11:44.059Z,101315.69
2022-08-28T08:14:11.701Z,101312.69
2022-08-28T08:16:43.382Z,101315.78
2022-08-28T08:19:15.261Z,101316.19
2022-08-28T08:21:45.349Z,101320.72
2022-08-28T08:24:17.973Z,101318.72
2022-08-28T08:26:59.957Z,101313.88
2022-08-28T08:29:31.658Z,101323.41
2022-08-28T08:32:05.385Z,101308.78
2022-08-28T08:34:40.106Z,101321.78
2022-08-28T08:37:07.783Z,101319.13
2022-08-28T08:39:36.449Z,101315.28
2022-08-28T08:42:10.341Z,101316.69
2022-08-28T08:44:44.035Z,101320.31
2022-08-28T08:47:19.699Z,101318.28
2022-08-28T08:50:34.906Z,101315.97
2022-08-28T08:53:35.169Z,101314.22
2022-08-28T08:56:05.496Z,101312.44
2022-08-28T08:58:40.824Z,101316.25
2022-08-28T09:01:46.955Z,101317.41
2022-08-28T09:04:40.069Z,101310.97
2022-08-28T09:07:27.295Z,101307.16
2022-08-28T09:09:57.013Z,101316.84
2022-08-28T09:12:41.793Z,101321.25
2022-08-28T09:15:19.759Z,101323.75
2022-08-28T09:17:59.384Z,101322.44
2022-08-28T09:20:32.597Z,101315.03
2022-08-28T09:23:00.661Z,101322.28
2022-08-28T09:25:44.248Z,101313.66
2022-08-28T09:28:19.483Z,101326.91
2022-08-28T09:31:05.259Z,101314.63
2022-08-28T09:33:42.079Z,101314.09
2022-08-28T09:36:28.411Z,101317.09
2022-08-28T09:39:15.978Z,101313.72
2022-08-28T09:42:12.148Z,101316.59
2022-08-28T09:45:13.470Z,101317.53
2022-08-28T09:47:55.395Z,101317.44
2022-08-28T09:50:40.770Z,101322.72
2022-08-28T09:53:11.537Z,101319.88
2022-08-28T09:55:57.125Z,101314.03
2022-08-28T09:58:33.427Z,101311.84
2022-08-28T10:01:25.628Z,101313.75
2022-08-28T10:04:36.971Z,101313.00
2022-08-28T10:07:32.358Z,101315.06
2022-08-28T10:10:48.331Z,101319.66
2022-08-28T10:13:29.190Z,101324.28
2022-08-28T10:16:37.569Z,101315.50
2022-08-28T10:19:44.522Z,101324.59
2022-08-28T10:22:37.403Z,101328.34
2022-08-28T10:25:21.733Z,101328.47
2022-08-28T10:28:22.417Z,101312.22
2022-08-28T10:31:11.346Z,101306.41
2022-08-28T10:34:08.351Z,101315.06
2022-08-28T10:36:35.725Z,101315.50
2022-08-28T10:39:35.485Z,101309.69
2022-08-28T10:42:04.799Z,101319.34
2022-08-28T10:45:08.539Z,101318.56
2022-08-28T10:47:40.399Z,101317.97
2022-08-28T10:50:16.253Z,101317.13
2022-08-28T10:52:49.750Z,101304.53
2022-08-28T10:55:32.340Z,101311.56
2022-08-28T10:58:23.888Z,101306.75
2022-08-28T11:00:56.626Z,101318.19
2022-08-28T11:03:34.311Z,101305.31
2022-08-28T11:06:22.240Z,101306.03
2022-08-28T11:08:56.837Z,101308.81
2022-08-28T11:11:45.300Z,101310.78
2022-08-28T11:14:31.973Z,101314.66
2022-08-28T11:17:08.324Z,101313.06
2022-08-28T11:19:59.049Z,101316.63
2022-08-28T11:23:08.721Z,101311.16
2022-08-28T11:25:58.752Z,101318.47
2022-08-28T11:28:25.714Z,101317.59
2022-08-28T11:30:58.649Z,101313.88
2022-08-28T11:33:37.355Z,101325.41
2022-08-28T11:36:20.525Z,101308.09
2022-08-28T11:38:53.597Z,101307.81
2022-08-28T11:41:32.379Z,101307.34
2022-08-28T11:44:12.330Z,101304.19
2022-08-28T11:46:46.056Z,101317.41
2022-08-28T11:49:31.668Z,101305.63
2022-08-28T11:52:22.941Z,101314.59
2022-08-28T11:55:17.601Z,101304.69
2022-08-28T12:01:07.518Z,101311.25
2022-08-28T12:03:43.424Z,101310.09
2022-08-28T12:06:12.160Z,101314.31
2022-08-28T12:09:03.576Z,101305.97
2022-08-28T12:11:39.416Z,101306.38
2022-08-28T12:14:26.079Z,101316.03
2022-08-28T12:16:59.102Z,101303.06
2022-08-28T12:19:56.185Z,101300.03
2022-08-28T12:22:39.826Z,101297.06
2022-08-28T12:25:22.947Z,101299.53
2022-08-28T12:27:50.209Z,101294.75
2022-08-28T12:30:41.044Z,101301.59
2022-08-28T12:33:38.496Z,101285.09
2022-08-28T12:36:17.281Z,101292.69
2022-08-28T12:38:51.096Z,101290.44
2022-08-28T12:41:18.830Z,101282.63
2022-08-28T12:43:51.521Z,101287.44
2022-08-28T12:46:30.474Z,101291.41
2022-08-28T12:49:04.667Z,101285.56
2022-08-28T12:51:37.307Z,101284.41
2022-08-28T12:54:08.321Z,101284.34
2022-08-28T12:56:38.369Z,101285.75
2022-08-28T12:59:43.179Z,101303.16
2022-08-28T13:02:35.606Z,101286.88
2022-08-28T13:05:11.678Z,101287.75
2022-08-28T13:07:49.342Z,101291.34
2022-08-28T13:10:25.835Z,101283.97
2022-08-28T13:13:01.990Z,101269.38
2022-08-28T13:15:46.606Z,101277.41
2022-08-28T13:18:40.893Z,101266.22
2022-08-28T13:21:33.972Z,101268.78
2022-08-28T13:24:45.790Z,101271.34
2022-08-28T13:27:12.487Z,101279.13
2022-08-28T13:29:57.407Z,101282.47
2022-08-28T13:32:29.553Z,101284.03
2022-08-28T13:35:25.052Z,101277.84
2022-08-28T13:37:55.749Z,101284.16
2022-08-28T13:40:56.458Z,101282.31
2022-08-28T13:43:17.395Z,101279.69
2022-08-28T13:45:46.398Z,101281.31
2022-08-28T13:48:16.042Z,101273.97
2022-08-28T13:50:47.232Z,101271.97
2022-08-28T13:53:16.909Z,101278.09
2022-08-28T13:55:45.283Z,101269.78
2022-08-28T13:58:13.734Z,101266.97
2022-08-28T14:00:47.755Z,101265.13
2022-08-28T14:03:34.192Z,101267.84
2022-08-28T14:06:11.694Z,101275.03
2022-08-28T14:08:40.480Z,101269.41
2022-08-28T14:11:08.225Z,101275.72
2022-08-28T14:13:40.670Z,101274.84
2022-08-28T14:16:16.600Z,101277.56
2022-08-28T14:18:43.571Z,101271.09
2022-08-28T14:21:10.375Z,101272.75
2022-08-28T14:23:37.199Z,101274.50
2022-08-28T14:26:05.743Z,101269.06
2022-08-28T14:28:32.650Z,101270.97
2022-08-28T14:30:59.476Z,101270.97
2022-08-28T14:33:26.283Z,101270.09
2022-08-28T14:35:54.600Z,101267.38
2022-08-28T14:38:21.397Z,101261.00
2022-08-28T14:40:48.264Z,101261.88
2022-08-28T14:43:15.984Z,101262.75
2022-08-28T14:45:49.530Z,101253.66
2022-08-28T14:48:18.629Z,101260.31
2022-08-28T14:50:48.107Z,101261.38
2022-08-28T14:53:15.647Z,101256.03
2022-08-28T14:55:47.201Z,101258.94
2022-08-28T14:58:15.879Z,101258.94
2022-08-28T15:00:47.419Z,101259.69
2022-08-28T15:03:15.796Z,101255.34
2022-08-28T15:05:43.068Z,101257.25
2022-08-28T15:08:13.330Z,101264.50
2022-08-28T15:10:44.553Z,101257.50
2022-08-28T15:13:12.590Z,101262.31
2022-08-28T15:15:42.083Z,101258.84
2022-08-28T15:18:10.520Z,101263.56
2022-08-28T15:20:44.033Z,101264.53
2022-08-28T15:23:13.529Z,101270.22
2022-08-28T15:25:40.838Z,101262.22
2022-08-28T15:28:08.244Z,101266.88
2022-08-28T15:30:35.437Z,101275.22
2022-08-28T15:33:02.340Z,101279.78
2022-08-28T15:35:29.248Z,101271.72
2022-08-28T15:37:56.077Z,101279.09
2022-08-28T15:40:41.413Z,101270.41
2022-08-28T15:43:08.808Z,101267.94
2022-08-28T15:45:39.817Z,101269.00
2022-08-28T15:48:07.157Z,101271.72
2022-08-28T15:50:34.845Z,101270.22
2022-08-28T15:53:02.629Z,101277.66
2022-08-28T15:55:30.160Z,101273.34
2022-08-28T15:57:57.126Z,101273.53
2022-08-28T16:00:23.953Z,101276.31
2022-08-28T16:02:50.785Z,101282.78
2022-08-28T16:05:18.058Z,101275.75
2022-08-28T16:07:44.874Z,101268.50
2022-08-28T16:10:13.642Z,101276.75
2022-08-28T16:12:40.904Z,101280.47
2022-08-28T16:15:09.100Z,101273.41
2022-08-28T16:17:36.007Z,101294.28
2022-08-28T16:20:11.051Z,101280.97
2022-08-28T16:22:40.522Z,101294.94
2022-08-28T16:25:09.674Z,101290.63
2022-08-28T16:27:36.797Z,101293.56
2022-08-28T16:30:05.982Z,101291.88
2022-08-28T16:32:32.830Z,101288.47
2022-08-28T16:34:59.600Z,101291.34
2022-08-28T16:37:27.049Z,101296.94
2022-08-28T16:40:08.737Z,101296.19
2022-08-28T16:42:36.085Z,101296.38
2022-08-28T16:45:04.647Z,101298.19
2022-08-28T16:47:33.709Z,101301.06
2022-08-28T16:50:02.909Z,101305.63
2022-08-28T16:52:29.745Z,101310.38
2022-08-28T16:54:56.558Z,101305.13
2022-08-28T16:57:23.828Z,101307.97
2022-08-28T16:59:53.170Z,101304.56
2022-08-28T17:02:26.622Z,101302.91
2022-08-28T17:04:58.021Z,101310.31
2022-08-28T17:07:24.858Z,101314.19
2022-08-28T17:09:52.404Z,101311.78
2022-08-28T17:12:19.306Z,101317.47
2022-08-28T17:14:46.091Z,101314.25
2022-08-28T17:17:13.019Z,101312.75
2022-08-28T17:19:40.179Z,101312.16
2022-08-28T17:22:27.274Z,101312.44
2022-08-28T17:24:54.798Z,101319.19
2022-08-28T17:27:22.611Z,101308.53
2022-08-28T17:29:50.793Z,101304.16
2022-08-28T17:32:17.953Z,101311.44
2022-08-28T17:34:45.224Z,101314.22
2022-08-28T17:37:12.185Z,101318.03
2022-08-28T17:39:39.188Z,101318.25
2022-08-28T17:42:06.158Z,101319.34
2022-08-28T17:44:33.277Z,101309.69
2022-08-28T17:47:00.835Z,101316.25
2022-08-28T17:49:27.713Z,101314.63
2022-08-28T17:51:54.581Z,101313.88
2022-08-28T17:54:24.195Z,101313.16
2022-08-28T17:56:54.354Z,101309.78
2022-08-28T17:59:23.874Z,101323.59
2022-08-28T18:01:51.014Z,101319.34
2022-08-28T18:04:24.288Z,101333.88
2022-08-28T18:06:54.083Z,101325.13
2022-08-28T18:09:21.506Z,101324.34
2022-08-28T18:11:48.402Z,101325.44
2022-08-28T18:14:15.416Z,101335.56
2022-08-28T18:16:42.293Z,101334.84
2022-08-28T18:19:10.668Z,101342.28
2022-08-28T18:21:39.670Z,101339.75
2022-08-28T18:24:07.088Z,101350.69
2022-08-28T18:26:33.959Z,101349.06
2022-08-28T18:29:00.888Z,101355.56
2022-08-28T18:31:27.841Z,101357.53
2022-08-28T18:33:54.751Z,101357.63
2022-08-28T18:36:23.062Z,101363.22
2022-08-28T18:38:50.302Z,101365.28
2022-08-28T18:41:19.348Z,101365.47
2022-08-28T18:43:46.838Z,101374.72
2022-08-28T18:46:14.324Z,101369.41
2022-08-28T18:48:42.262Z,101376.78
2022-08-28T18:51:11.686Z,101373.38
2022-08-28T18:53:39.081Z,101376.34
2022-08-28T18:56:12.185Z,101386.47
2022-08-28T18:58:40.864Z,101388.41
2022-08-28T19:01:09.217Z,101390.31
2022-08-28T19:03:36.703Z,101386.94
2022-08-28T19:06:04.254Z,101394.34
2022-08-28T19:08:32.745Z,101398.97
2022-08-28T19:10:59.657Z,101390.22
2022-08-28T19:13:27.787Z,101403.84
2022-08-28T19:15:54.665Z,101398.56
2022-08-28T19:18:21.561Z,101397.84
2022-08-28T19:20:48.643Z,101407.00
2022-08-28T19:23:17.923Z,101408.06
2022-08-28T19:25:45.741Z,101417.22
2022-08-28T19:28:12.615Z,101411.94
2022-08-28T19:30:39.536Z,101417.47
2022-08-28T19:33:06.362Z,101414.94
2022-08-28T19:35:33.827Z,101430.31
2022-08-28T19:38:01.029Z,101426.84
2022-08-28T19:40:27.920Z,101425.19
2022-08-28T19:42:54.756Z,101422.72
2022-08-28T19:45:21.673Z,101429.16
2022-08-28T19:47:48.501Z,101432.88
2022-08-28T19:50:16.356Z,101431.22
2022-08-28T19:52:44.990Z,101434.88
2022-08-28T19:55:24.238Z,101445.78
2022-08-28T19:57:51.191Z,101450.31
2022-08-28T20:00:23.188Z,101444.13
2022-08-28T20:02:52.295Z,101451.50
2022-08-28T20:05:21.461Z,101453.34
2022-08-28T20:07:48.788Z,101456.13
2022-08-28T20:10:16.217Z,101462.47
2022-08-28T20:12:48.094Z,101455.44
2022-08-28T20:15:18.010Z,101467.22
2022-08-28T20:17:50.133Z,101466.41
2022-08-28T20:20:24.580Z,101467.41
2022-08-28T20:22:53.997Z,101466.66
2022-08-28T20:25:21.603Z,101472.13
2022-08-28T20:27:48.426Z,101474.00
2022-08-28T20:30:15.322Z,101482.22
2022-08-28T20:32:42.225Z,101479.59
2022-08-28T20:35:12.263Z,101485.09
2022-08-28T20:37:45.342Z,101479.81
2022-08-28T20:40:18.536Z,101483.53
2022-08-28T20:42:46.619Z,101479.16
2022-08-28T20:45:16.054Z,101476.59
2022-08-28T20:47:43.993Z,101482.09
2022-08-28T20:50:11.441Z,101471.41
2022-08-28T20:52:38.936Z,101479.56
2022-08-28T20:55:07.646Z,101480.56
2022-08-28T20:57:34.929Z,101475.34
2022-08-28T21:00:05.687Z,101477.25
2022-08-28T21:02:33.036Z,101475.53
2022-08-28T21:05:00.108Z,101477.44
2022-08-28T21:07:27.369Z,101480.22
2022-08-28T21:10:05.318Z,101483.03
2022-08-28T21:12:39.377Z,101480.41
2022-08-28T21:15:09.537Z,101484.13
2022-08-28T21:17:36.665Z,101492.31
2022-08-28T21:20:12.668Z,101492.38
2022-08-28T21:22:39.785Z,101485.34
2022-08-28T21:25:10.395Z,101487.22
2022-08-28T21:27:37.994Z,101479.28
2022-08-28T21:30:07.570Z,101474.84
2022-08-28T21:32:34.922Z,101482.16
2022-08-28T21:35:04.139Z,101482.28
2022-08-28T21:37:31.351Z,101485.06
2022-08-28T21:39:59.490Z,101481.63
2022-08-28T21:42:27.280Z,101477.28
2022-08-28T21:44:54.581Z,101480.94
2022-08-28T21:47:23.152Z,101484.66
2022-08-28T21:49:52.283Z,101479.44
2022-08-28T21:52:21.893Z,101483.16
2022-08-28T21:54:49.413Z,101497.63
2022-08-28T21:57:17.658Z,101492.41
2022-08-28T21:59:44.560Z,101489.84
2022-08-28T22:02:11.578Z,101481.91
2022-08-28T22:04:38.630Z,101494.59
2022-08-28T22:07:05.665Z,101492.97
2022-08-28T22:09:32.828Z,101486.81
2022-08-28T22:12:00.393Z,101488.72
2022-08-28T22:14:28.448Z,101489.72
2022-08-28T22:16:55.623Z,101493.41
2022-08-28T22:19:22.887Z,101486.34
2022-08-28T22:22:08.590Z,101490.91
2022-08-28T22:24:36.548Z,101489.31
2022-08-28T22:27:04.777Z,101493.84
2022-08-28T22:29:36.390Z,101501.06
2022-08-28T22:32:05.003Z,101501.16
2022-08-28T22:34:32.049Z,101495.84
2022-08-28T22:36:59.301Z,101505.72
2022-08-28T22:39:26.134Z,101504.91
2022-08-28T22:41:52.991Z,101508.47
2022-08-28T22:44:19.812Z,101509.47
2022-08-28T22:46:46.629Z,101513.97
2022-08-28T22:49:13.455Z,101507.78
2022-08-28T22:51:40.344Z,101501.53
2022-08-28T22:54:07.344Z,101510.50
2022-08-28T22:56:34.250Z,101501.63
2022-08-28T22:59:01.245Z,101493.56
2022-08-28T23:01:28.714Z,101500.75
2022-08-28T23:03:55.773Z,101499.00
2022-08-28T23:06:22.657Z,101499.06
2022-08-28T23:08:49.663Z,101510.72
2022-08-28T23:11:16.953Z,101507.16
2022-08-28T23:13:43.870Z,101502.72
2022-08-28T23:16:11.306Z,101500.06
2022-08-28T23:19:04.293Z,101498.31
2022-08-28T23:21:28.289Z,101501.91
2022-08-28T23:23:55.852Z,101498.41
2022-08-28T23:26:24.320Z,101493.97
2022-08-28T23:28:52.251Z,101503.84
2022-08-28T23:31:19.248Z,101500.28
2022-08-28T23:33:46.347Z,101494.09
2022-08-28T23:36:14.736Z,101497.69
2022-08-28T23:38:43.146Z,101495.94
2022-08-28T23:41:11.213Z,101499.56
2022-08-28T23:43:38.416Z,101487.06
2022-08-28T23:46:06.363Z,101484.41
2022-08-28T23:48:33.582Z,101482.63
2022-08-28T23:51:02.284Z,101479.94
2022-08-28T23:53:29.504Z,101480.88
2022-08-28T23:55:59.678Z,101480.88
2022-08-28T23:58:31.872Z,101479.09
